Time;durP1;ratioP1;P1;durP2;ratioP2;P2;SDS_P1;SDS_P2;PMS_P1;PMS_P2;Temp;Humidity;BMP_temperature;BMP_pressure;BME280_temperature;BME280_humidity;BME280_pressure;Samples;Min_cycle;Max_cycle;Signal;HPM_P1;HPM_P2
2023/01/27 00:01:50;;;;;;;16.38;8.40;;;;;;;0.81;80.24;94359.66;4992944;28;20167;-74
2023/01/27 00:04:15;;;;;;;15.45;8.38;;;;;;;0.79;80.60;94349.44;5010009;28;20058;-76
2023/01/27 00:06:40;;;;;;;13.95;6.90;;;;;;;1.12;80.93;94408.81;5010793;28;20038;-75
2023/01/27 00:09:06;;;;;;;14.05;6.93;;;;;;;1.13;80.14;94400.75;5011138;28;20057;-75
2023/01/27 00:14:15;;;;;;;15.57;8.05;;;;;;;1.00;80.21;94374.09;5010463;28;20119;-74
2023/01/27 00:16:41;;;;;;;20.38;9.13;;;;;;;1.06;80.68;94367.97;5010545;28;20065;-75
2023/01/27 00:19:06;;;;;;;16.80;8.07;;;;;;;0.77;80.18;94331.41;4992701;28;20338;-74
2023/01/27 00:27:00;;;;;;;18.65;8.15;;;;;;;1.01;80.81;94365.25;5010538;28;20103;-74
2023/01/27 00:29:26;;;;;;;20.65;8.43;;;;;;;1.02;80.64;94374.66;5010032;28;20046;-73
2023/01/27 00:34:35;;;;;;;15.82;8.30;;;;;;;1.04;80.92;94364.78;5011073;28;20041;-73
2023/01/27 00:37:01;;;;;;;17.75;8.65;;;;;;;1.11;80.77;94365.44;5009993;28;20038;-74
2023/01/27 00:39:26;;;;;;;17.00;8.70;;;;;;;1.05;80.55;94367.19;5009738;28;20049;-74
2023/01/27 00:41:52;;;;;;;17.00;9.48;;;;;;;1.17;80.33;94380.16;4990044;28;20468;-74
2023/01/27 00:44:17;;;;;;;13.45;8.02;;;;;;;0.78;80.44;94301.69;4990827;28;20034;-74
2023/01/27 00:46:44;;;;;;;16.63;8.45;;;;;;;0.97;80.41;94338.84;4990449;28;20515;-74
2023/01/27 00:49:12;;;;;;;16.80;8.38;;;;;;;1.14;80.66;94367.59;4993711;28;20036;-74
2023/01/27 00:51:37;;;;;;;34.47;8.50;;;;;;;0.74;80.59;94315.44;4978848;28;20084;-74
2023/01/27 00:54:03;;;;;;;16.48;8.48;;;;;;;0.94;80.25;94356.75;4993987;28;20496;-74
2023/01/27 00:56:29;;;;;;;17.67;8.45;;;;;;;1.14;80.47;94376.19;4994340;28;20089;-74
2023/01/27 00:58:54;;;;;;;15.57;8.65;;;;;;;0.85;80.24;94314.56;4994707;28;20030;-73
2023/01/27 01:01:20;;;;;;;14.02;8.13;;;;;;;0.88;80.41;94319.34;4981505;28;20041;-74
2023/01/27 01:03:45;;;;;;;15.15;8.73;;;;;;;1.24;80.26;94380.03;5013293;28;20115;-74
2023/01/27 01:06:14;;;;;;;14.82;7.70;;;;;;;1.11;80.28;94355.78;5013499;28;20041;-75
2023/01/27 01:08:41;;;;;;;20.73;8.48;;;;;;;1.08;79.90;94339.78;4996140;28;20087;-74
2023/01/27 01:11:08;;;;;;;15.90;7.70;;;;;;;1.23;80.26;94358.31;5013959;28;20034;-74
2023/01/27 01:13:34;;;;;;;15.90;7.28;;;;;;;1.07;80.96;94356.47;4995242;28;20192;-74
2023/01/27 01:16:11;;;;;;;14.55;8.77;;;;;;;1.03;80.77;94329.25;4995878;28;20072;-74
2023/01/27 01:18:37;;;;;;;18.17;9.85;;;;;;;1.25;80.65;94371.94;4997798;28;20038;-74
2023/01/27 01:21:05;;;;;;;18.63;9.65;;;;;;;0.89;80.38;94302.66;4994083;28;20030;-74
2023/01/27 01:23:31;;;;;;;18.65;8.95;;;;;;;1.20;80.29;94355.41;4993417;28;20489;-74
2023/01/27 01:25:57;;;;;;;19.38;10.18;;;;;;;0.88;80.27;94314.13;4993955;28;20397;-74
2023/01/27 01:28:24;;;;;;;20.60;10.15;;;;;;;0.99;80.35;94325.56;4993436;28;20077;-74
2023/01/27 01:30:50;;;;;;;17.40;10.05;;;;;;;1.31;80.69;94367.59;4980402;28;20018;-74
2023/01/27 01:33:16;;;;;;;22.45;11.20;;;;;;;1.31;81.01;94359.75;4995653;28;20037;-74
2023/01/27 01:35:41;;;;;;;19.35;9.73;;;;;;;1.30;80.85;94371.28;5013359;28;20107;-75
2023/01/27 01:38:07;;;;;;;21.45;10.70;;;;;;;1.33;80.73;94376.78;4994919;28;20030;-75
2023/01/27 01:40:33;;;;;;;23.92;10.75;;;;;;;1.34;80.32;94382.81;4995554;28;20038;-74
2023/01/27 01:43:01;;;;;;;21.98;11.80;;;;;;;1.36;80.13;94386.78;4995278;28;20026;-74
2023/01/27 01:45:34;;;;;;;19.70;10.18;;;;;;;1.35;80.11;94390.44;5013001;28;20451;-75
2023/01/27 01:48:10;;;;;;;22.42;9.80;;;;;;;1.24;80.28;94378.19;4998192;28;20041;-74
2023/01/27 01:50:39;;;;;;;18.52;10.60;;;;;;;0.90;80.27;94311.28;5010277;28;20030;-74
2023/01/27 01:53:06;;;;;;;23.00;11.18;;;;;;;1.32;80.46;94379.63;5012489;28;20022;-74
2023/01/27 01:55:35;;;;;;;19.77;10.70;;;;;;;0.97;80.68;94307.50;4995379;28;20065;-74
2023/01/27 01:58:01;;;;;;;19.35;10.40;;;;;;;1.33;81.00;94355.91;5012110;28;20049;-74
2023/01/27 02:00:27;;;;;;;31.00;12.90;;;;;;;1.10;81.25;94319.47;5012695;28;20038;-74
2023/01/27 02:02:53;;;;;;;24.63;12.38;;;;;;;1.33;81.28;94353.28;5011943;28;20064;-74
2023/01/27 02:05:28;;;;;;;28.58;11.68;;;;;;;1.22;81.42;94329.84;4987953;28;20097;-74
2023/01/27 02:07:58;;;;;;;23.80;11.90;;;;;;;1.11;81.87;94342.72;4975423;28;20038;-74
2023/01/27 02:10:24;;;;;;;36.08;17.02;;;;;;;0.92;82.41;94338.72;4993042;28;20076;-74
2023/01/27 02:12:49;;;;;;;37.92;18.45;;;;;;;0.44;82.45;94245.22;4992597;28;20121;-74
2023/01/27 02:15:16;;;;;;;61.95;26.55;;;;;;;0.95;82.11;94322.59;4993077;28;20038;-78
2023/01/27 02:17:42;;;;;;;61.75;27.02;;;;;;;0.64;82.42;94265.66;4993020;28;20049;-78
2023/01/27 02:20:30;;;;;;;61.40;26.05;;;;;;;1.06;81.83;94310.53;5011156;28;20034;-78
2023/01/27 02:23:16;;;;;;;43.35;20.73;;;;;;;1.06;82.14;94308.72;5011336;28;20030;-78
2023/01/27 02:25:50;;;;;;;33.78;17.30;;;;;;;0.94;82.10;94300.13;4993737;28;20519;-79
2023/01/27 02:28:16;;;;;;;36.17;18.20;;;;;;;0.65;82.15;94244.56;5011309;28;20087;-78
2023/01/27 02:30:41;;;;;;;34.15;17.92;;;;;;;0.93;82.14;94280.25;4993566;28;20555;-78
2023/01/27 02:33:12;;;;;;;33.75;17.42;;;;;;;0.82;81.85;94249.81;5011375;28;20022;-78
2023/01/27 02:35:57;;;;;;;45.63;20.15;;;;;;;0.83;82.08;94314.03;4998551;28;20173;-78
2023/01/27 02:38:24;;;;;;;42.53;20.77;;;;;;;0.83;82.53;94306.22;4993101;28;20026;-78
2023/01/27 02:40:56;;;;;;;41.88;21.30;;;;;;;0.57;83.85;94311.97;5011183;28;20038;-78
2023/01/27 02:43:21;;;;;;;47.33;22.35;;;;;;;0.59;83.68;94299.50;4993438;28;20026;-78
2023/01/27 02:45:47;;;;;;;46.15;22.38;;;;;;;0.61;84.27;94308.66;4993742;28;20033;-78
2023/01/27 02:48:13;;;;;;;45.72;22.70;;;;;;;0.69;83.81;94310.91;4989220;28;20469;-78
2023/01/27 02:50:38;;;;;;;49.17;22.40;;;;;;;0.72;83.51;94328.72;4980035;28;20380;-78
2023/01/27 02:53:04;;;;;;;50.58;21.50;;;;;;;-0.02;82.83;94186.22;4993380;28;20025;-78
2023/01/27 02:55:30;;;;;;;51.25;23.25;;;;;;;0.86;82.38;94312.75;4984719;28;20460;-77
2023/01/27 02:57:55;;;;;;;45.95;21.83;;;;;;;0.93;82.08;94311.59;4991622;28;20105;-78
2023/01/27 03:00:21;;;;;;;43.22;22.15;;;;;;;0.23;81.70;94201.56;4984423;28;20033;-78
2023/01/27 03:02:46;;;;;;;47.80;22.75;;;;;;;0.82;82.78;94293.38;5010459;28;20543;-78
2023/01/27 03:05:12;;;;;;;47.42;22.00;;;;;;;1.00;82.39;94321.88;4993020;28;20168;-78
2023/01/27 03:07:38;;;;;;;42.75;20.15;;;;;;;1.04;82.65;94317.78;4993258;28;20585;-78
2023/01/27 03:10:04;;;;;;;41.85;19.73;;;;;;;0.83;82.79;94289.75;5009992;28;20101;-78
2023/01/27 03:12:29;;;;;;;47.28;21.73;;;;;;;0.89;82.59;94294.81;4992703;28;20029;-78
2023/01/27 03:20:23;;;;;;;34.33;16.48;;;;;;;1.00;82.30;94287.94;5010135;28;20045;-78
2023/01/27 03:22:48;;;;;;;27.05;14.27;;;;;;;1.08;82.06;94277.91;5010413;28;20038;-78
2023/01/27 03:25:15;;;;;;;24.92;13.00;;;;;;;0.94;82.11;94270.63;5010800;28;20084;-78
2023/01/27 03:27:41;;;;;;;23.77;12.85;;;;;;;0.44;82.43;94195.66;4992704;28;20488;-78
2023/01/27 03:30:08;;;;;;;28.98;12.82;;;;;;;0.99;82.67;94284.53;4980802;28;20026;-78
2023/01/27 03:32:34;;;;;;;23.25;12.68;;;;;;;0.77;82.93;94274.00;4990182;28;20061;-78
2023/01/27 03:35:00;;;;;;;23.90;12.18;;;;;;;0.32;83.61;94202.75;4991142;28;20093;-78
2023/01/27 03:48:30;;;;;;;22.20;11.63;;;;;;;0.26;85.01;94242.78;4990630;28;20041;-77
2023/01/27 03:51:02;;;;;;;20.58;11.60;;;;;;;-0.09;85.64;94202.00;4990333;28;20030;-78
2023/01/27 03:53:28;;;;;;;20.58;10.75;;;;;;;-0.29;86.21;94193.75;4989484;28;20034;-78
2023/01/27 03:55:53;;;;;;;19.02;10.07;;;;;;;-0.05;86.52;94210.91;4990853;28;20036;-77
2023/01/27 03:58:23;;;;;;;22.00;11.18;;;;;;;0.20;85.57;94244.53;4992153;28;20026;-77
2023/01/27 04:00:51;;;;;;;18.75;9.63;;;;;;;-0.24;85.83;94186.06;4992141;28;20556;-77
2023/01/27 04:08:49;;;;;;;14.80;8.45;;;;;;;0.06;86.02;94256.25;5009874;28;20080;-78
2023/01/27 04:14:04;;;;;;;17.77;7.50;;;;;;;0.13;85.74;94272.53;5009450;28;20045;-79
2023/01/27 04:16:30;;;;;;;17.38;6.80;;;;;;;0.33;85.18;94285.16;5010018;28;20534;-79
2023/01/27 04:18:56;;;;;;;12.02;6.75;;;;;;;0.43;84.18;94295.00;4992554;28;20026;-78
2023/01/27 04:21:24;;;;;;;19.58;6.78;;;;;;;0.68;83.61;94318.97;5011026;28;20543;-79
2023/01/27 04:23:50;;;;;;;16.90;6.72;;;;;;;0.76;83.76;94316.78;5013535;28;20037;-78
2023/01/27 04:26:16;;;;;;;10.88;6.53;;;;;;;0.42;83.46;94247.28;5014152;28;20025;-78
2023/01/27 04:28:41;;;;;;;12.25;6.63;;;;;;;0.87;83.28;94317.75;4996287;28;20049;-78
2023/01/27 04:31:07;;;;;;;17.63;6.45;;;;;;;0.33;82.69;94265.09;4996315;28;20034;-78
2023/01/27 04:33:32;;;;;;;11.10;6.60;;;;;;;0.03;82.98;94235.03;5013298;28;20034;-79
2023/01/27 04:35:57;;;;;;;15.48;6.38;;;;;;;0.15;82.85;94238.44;4996088;28;20384;-78
2023/01/27 04:38:23;;;;;;;15.98;6.82;;;;;;;0.81;82.48;94318.69;5013696;28;20030;-78
2023/01/27 04:40:48;;;;;;;11.93;6.80;;;;;;;0.90;82.78;94330.34;5013847;28;20136;-78
2023/01/27 04:43:14;;;;;;;19.02;6.93;;;;;;;0.36;82.68;94254.22;4995166;28;20029;-78
2023/01/27 04:45:39;;;;;;;13.10;7.18;;;;;;;0.37;82.72;94249.78;5013788;28;20034;-78
2023/01/27 04:48:08;;;;;;;15.45;6.43;;;;;;;0.72;82.38;94302.63;5013887;28;20081;-78
2023/01/27 04:50:33;;;;;;;14.18;6.53;;;;;;;0.28;82.21;94232.94;5013343;28;20037;-78
2023/01/27 04:52:58;;;;;;;22.25;8.32;;;;;;;0.65;82.17;94282.91;5013250;28;20034;-78
2023/01/27 04:55:24;;;;;;;24.77;7.47;;;;;;;0.62;82.44;94271.09;4995153;28;20029;-78
2023/01/27 04:57:49;;;;;;;16.48;8.02;;;;;;;1.00;82.13;94327.09;4995853;28;20049;-79
2023/01/27 05:00:15;;;;;;;20.58;8.30;;;;;;;0.90;82.25;94304.25;5013288;28;20034;-78
2023/01/27 05:02:41;;;;;;;20.27;8.48;;;;;;;1.04;82.32;94338.69;5012216;28;20044;-78
2023/01/27 05:05:07;;;;;;;18.83;8.13;;;;;;;0.94;83.60;94354.16;5012016;28;20032;-77
2023/01/27 05:07:32;;;;;;;18.45;9.68;;;;;;;0.69;83.88;94310.91;5011263;28;20095;-78
2023/01/27 05:09:58;;;;;;;19.17;9.15;;;;;;;1.01;83.26;94349.59;5011810;28;20037;-78
2023/01/27 05:12:24;;;;;;;26.50;10.60;;;;;;;0.24;82.91;94223.97;5010035;28;20536;-77
2023/01/27 05:14:49;;;;;;;22.27;9.80;;;;;;;1.03;82.44;94337.09;5010799;28;20468;-78
2023/01/27 05:17:15;;;;;;;21.58;10.07;;;;;;;0.56;83.79;94329.44;5007975;28;20030;-78
2023/01/27 05:19:40;;;;;;;20.75;10.07;;;;;;;0.43;84.80;94308.06;4985327;28;20088;-78
2023/01/27 05:22:07;;;;;;;22.83;8.88;;;;;;;0.56;84.59;94339.88;4992360;28;20247;-78
2023/01/27 05:24:33;;;;;;;18.23;10.18;;;;;;;-0.53;84.44;94171.38;4972950;28;20085;-79
2023/01/27 05:26:58;;;;;;;21.63;9.65;;;;;;;0.45;84.94;94316.44;4975128;28;20160;-79
2023/01/27 05:29:24;;;;;;;21.45;9.50;;;;;;;0.13;85.47;94263.94;4985450;28;20026;-78
2023/01/27 05:31:49;;;;;;;21.13;10.30;;;;;;;-0.32;86.01;94238.53;4985469;28;20092;-79
2023/01/27 05:34:15;;;;;;;24.73;11.18;;;;;;;0.05;86.61;94287.75;4988517;28;20034;-78
2023/01/27 05:36:41;;;;;;;20.15;10.30;;;;;;;0.09;86.45;94276.63;4984071;28;20042;-78
2023/01/27 05:39:09;;;;;;;31.42;10.18;;;;;;;0.23;86.89;94296.19;4969114;28;20395;-79
2023/01/27 05:41:35;;;;;;;18.27;10.48;;;;;;;0.31;86.62;94303.66;4986689;28;20042;-78
2023/01/27 05:44:01;;;;;;;21.85;10.63;;;;;;;0.19;87.26;94289.06;4974312;28;20043;-78
2023/01/27 05:46:28;;;;;;;27.95;11.18;;;;;;;-0.18;86.32;94229.44;4988255;28;20038;-79
2023/01/27 05:48:56;;;;;;;25.27;10.13;;;;;;;-0.01;87.14;94308.50;4982228;28;20643;-78
2023/01/27 05:51:24;;;;;;;21.23;9.90;;;;;;;-0.23;87.49;94289.25;4979346;28;20096;-77
2023/01/27 05:53:49;;;;;;;21.42;10.35;;;;;;;-0.18;87.57;94293.78;4973719;28;20118;-79
2023/01/27 05:56:17;;;;;;;16.95;9.18;;;;;;;-0.25;87.91;94316.56;4988498;28;20455;-79
2023/01/27 05:58:43;;;;;;;20.73;9.45;;;;;;;-0.84;88.30;94240.25;4989787;28;20026;-80
2023/01/27 06:01:20;;;;;;;18.90;8.90;;;;;;;-0.34;88.26;94320.53;4984850;28;20145;-79
2023/01/27 06:03:46;;;;;;;20.98;11.25;;;;;;;-0.23;88.34;94335.38;4978802;28;20145;-78
2023/01/27 06:06:13;;;;;;;18.58;10.23;;;;;;;-0.27;87.69;94322.00;4984323;28;20109;-81
2023/01/27 06:08:39;;;;;;;29.88;11.07;;;;;;;-0.17;87.88;94308.41;4970577;28;20037;-78
2023/01/27 06:11:05;;;;;;;21.15;10.50;;;;;;;-0.12;87.48;94308.50;4970037;28;20034;-81
2023/01/27 06:13:34;;;;;;;26.92;12.93;;;;;;;-0.43;87.61;94263.56;4978166;28;20041;-82
2023/01/27 06:16:03;;;;;;;23.55;11.30;;;;;;;-0.67;87.49;94207.28;4977638;28;20031;-84
2023/01/27 06:18:29;;;;;;;28.92;12.85;;;;;;;0.00;86.69;94328.31;4969210;28;20464;-82
2023/01/27 06:20:59;;;;;;;26.40;14.00;;;;;;;-1.05;86.88;94171.31;4978524;28;20050;-80
2023/01/27 06:23:26;;;;;;;28.98;12.40;;;;;;;-0.92;87.67;94210.13;4956225;28;20737;-80
2023/01/27 06:25:52;;;;;;;28.67;12.52;;;;;;;-0.06;87.66;94336.25;4979729;28;20509;-81
2023/01/27 06:28:17;;;;;;;29.73;13.90;;;;;;;-0.03;87.09;94328.00;4968175;28;20124;-81
2023/01/27 06:30:43;;;;;;;24.13;12.43;;;;;;;-0.04;87.01;94329.81;4984928;28;20507;-82
2023/01/27 06:33:09;;;;;;;24.88;12.50;;;;;;;0.02;86.59;94335.91;4971527;28;20033;-81
2023/01/27 06:35:36;;;;;;;19.08;11.57;;;;;;;-0.08;87.13;94333.09;4988360;28;20488;-81
2023/01/27 06:38:03;;;;;;;23.83;11.82;;;;;;;-0.16;86.77;94323.81;4976528;28;20107;-82
2023/01/27 06:40:30;;;;;;;25.98;12.18;;;;;;;-0.09;86.93;94327.09;4987914;28;20835;-82
2023/01/27 06:42:56;;;;;;;23.05;11.52;;;;;;;-0.49;87.26;94279.31;4977009;28;20031;-83
2023/01/27 06:45:21;;;;;;;22.90;10.43;;;;;;;-0.79;86.78;94253.38;4983877;28;20095;-79
2023/01/27 06:47:58;;;;;;;19.63;9.95;;;;;;;-0.92;87.10;94211.94;4973650;28;20064;-80
2023/01/27 06:50:26;;;;;;;17.92;9.82;;;;;;;-0.56;86.68;94255.97;4967951;28;20035;-81
2023/01/27 06:53:00;;;;;;;18.63;9.52;;;;;;;-0.72;85.86;94254.06;4983399;28;20109;-82
2023/01/27 06:55:26;;;;;;;15.77;8.32;;;;;;;-0.93;85.83;94225.97;4986880;28;20041;-80
2023/01/27 06:57:52;;;;;;;17.45;8.63;;;;;;;-0.91;85.25;94231.72;4975840;28;20731;-82
2023/01/27 07:00:18;;;;;;;14.10;8.60;;;;;;;-0.29;86.27;94346.69;4967055;28;20042;-83
2023/01/27 07:02:43;;;;;;;17.65;9.70;;;;;;;-0.24;86.90;94342.41;4958791;28;20234;-78
2023/01/27 07:05:10;;;;;;;17.98;9.60;;;;;;;-0.19;86.82;94333.88;4980661;28;20558;-78
2023/01/27 07:07:35;;;;;;;21.25;10.13;;;;;;;-0.41;86.43;94286.78;4978275;28;20091;-79
2023/01/27 07:10:01;;;;;;;22.55;9.75;;;;;;;0.01;85.50;94347.34;4969903;28;20064;-79
2023/01/27 07:12:26;;;;;;;23.90;9.77;;;;;;;-0.69;84.94;94253.63;4934186;28;20030;-81
2023/01/27 07:14:51;;;;;;;22.13;8.85;;;;;;;-0.10;85.34;94359.38;4962778;28;20038;-81
2023/01/27 07:17:17;;;;;;;16.70;8.15;;;;;;;-0.64;85.33;94269.34;4965928;28;20038;-79
2023/01/27 07:19:42;;;;;;;16.23;8.70;;;;;;;0.09;85.68;94346.22;4945956;28;20038;-80
2023/01/27 07:22:08;;;;;;;22.40;9.10;;;;;;;-0.35;84.66;94290.28;4943465;28;20088;-77
2023/01/27 07:24:33;;;;;;;13.38;7.85;;;;;;;-0.05;84.49;94315.19;4961903;28;20466;-78
2023/01/27 07:26:59;;;;;;;18.75;8.90;;;;;;;-0.31;84.75;94281.78;4963086;28;20476;-79
2023/01/27 07:29:24;;;;;;;12.40;7.57;;;;;;;-0.81;84.42;94195.53;4960476;28;20027;-80
2023/01/27 07:31:49;;;;;;;17.55;8.27;;;;;;;-0.04;84.49;94306.34;4961850;28;20065;-80
2023/01/27 07:34:15;;;;;;;16.25;7.15;;;;;;;-0.43;83.65;94255.75;4964165;28;20150;-79
2023/01/27 07:36:41;;;;;;;18.13;8.82;;;;;;;-0.13;84.68;94297.28;4986895;28;20038;-78
2023/01/27 07:39:07;;;;;;;11.40;7.47;;;;;;;-0.54;83.88;94250.56;4974233;28;20112;-79
2023/01/27 07:41:32;;;;;;;19.40;8.13;;;;;;;0.27;83.84;94351.31;4977083;28;20492;-79
2023/01/27 07:43:58;;;;;;;13.65;7.85;;;;;;;-0.36;83.53;94255.63;4978161;28;20030;-79
2023/01/27 07:46:23;;;;;;;12.88;7.45;;;;;;;-0.32;83.35;94282.81;4982957;28;20540;-78
2023/01/27 07:48:49;;;;;;;18.15;8.25;;;;;;;0.16;83.22;94358.09;4984097;28;20124;-81
2023/01/27 07:51:14;;;;;;;13.15;7.35;;;;;;;-0.39;82.63;94261.31;4971234;28;20033;-80
2023/01/27 07:53:40;;;;;;;21.15;9.88;;;;;;;-0.44;84.02;94264.56;4979747;28;20030;-80
2023/01/27 07:56:12;;;;;;;20.25;11.45;;;;;;;-0.48;83.68;94250.44;4963614;28;20092;-77
2023/01/27 07:58:38;;;;;;;25.58;12.75;;;;;;;0.17;83.74;94366.72;4980603;28;20527;-77
2023/01/27 08:01:06;;;;;;;23.95;11.73;;;;;;;-0.36;83.16;94292.09;4978952;28;20053;-77
2023/01/27 08:03:31;;;;;;;23.05;11.80;;;;;;;-0.66;83.16;94252.34;4962430;28;20056;-78
2023/01/27 08:05:57;;;;;;;24.58;11.98;;;;;;;-0.33;83.52;94294.25;4970531;28;20026;-79
2023/01/27 08:08:22;;;;;;;24.80;13.23;;;;;;;0.12;83.28;94345.78;4971276;28;20210;-76
2023/01/27 08:10:50;;;;;;;28.83;11.68;;;;;;;-0.33;83.62;94281.22;4972740;28;20240;-79
2023/01/27 08:13:16;;;;;;;21.75;11.70;;;;;;;0.03;83.39;94331.50;4980571;28;20057;-79
2023/01/27 08:15:41;;;;;;;31.50;13.13;;;;;;;-0.10;83.08;94283.00;4980077;28;20041;-78
2023/01/27 08:18:08;;;;;;;23.90;11.40;;;;;;;-0.52;82.90;94228.44;4980820;28;20067;-77
2023/01/27 08:20:34;;;;;;;22.83;10.07;;;;;;;-0.18;82.20;94284.16;4982164;28;20038;-78
2023/01/27 08:22:59;;;;;;;22.08;10.38;;;;;;;-0.23;81.46;94252.00;4986042;28;20026;-79
2023/01/27 08:25:25;;;;;;;19.13;10.82;;;;;;;0.35;82.68;94356.16;4985428;28;20259;-78
2023/01/27 08:27:55;;;;;;;20.77;9.30;;;;;;;0.31;81.53;94355.03;4966925;28;20097;-78
2023/01/27 08:30:21;;;;;;;18.23;8.73;;;;;;;0.37;82.07;94357.53;4960630;28;20057;-78
2023/01/27 08:32:47;;;;;;;21.52;9.25;;;;;;;-0.49;81.07;94227.22;4980833;28;20758;-78
2023/01/27 08:35:12;;;;;;;17.17;8.98;;;;;;;-0.08;81.24;94296.63;4964237;28;20034;-77
2023/01/27 08:37:38;;;;;;;17.02;7.85;;;;;;;-0.20;80.86;94285.41;4983564;28;20048;-77
2023/01/27 08:40:04;;;;;;;17.25;7.63;;;;;;;-0.48;81.05;94249.63;4980014;28;20026;-76
2023/01/27 08:42:29;;;;;;;14.20;8.13;;;;;;;-0.25;81.63;94300.94;4963757;28;20045;-77
2023/01/27 08:44:55;;;;;;;12.75;7.13;;;;;;;-0.17;81.40;94350.91;4981188;28;20096;-78
2023/01/27 08:47:21;;;;;;;11.63;7.43;;;;;;;-0.43;81.74;94320.06;4984517;28;20548;-78
2023/01/27 08:49:47;;;;;;;13.63;7.85;;;;;;;-0.72;82.35;94306.13;4979728;28;20053;-78
2023/01/27 08:52:13;;;;;;;14.20;8.00;;;;;;;-0.42;82.28;94351.09;4976728;28;20030;-78
2023/01/27 08:54:39;;;;;;;12.25;7.20;;;;;;;-0.31;83.19;94372.19;4977944;28;20061;-78
2023/01/27 08:57:04;;;;;;;16.92;7.75;;;;;;;-1.01;82.99;94260.13;4949228;28;20041;-79
2023/01/27 08:59:29;;;;;;;26.38;9.02;;;;;;;-1.28;83.52;94231.13;4975791;28;20038;-79
2023/01/27 09:01:55;;;;;;;14.77;8.00;;;;;;;-0.81;83.14;94292.63;4962123;28;20112;-78
2023/01/27 09:04:21;;;;;;;20.15;8.52;;;;;;;-0.51;83.13;94328.22;4954804;28;20061;-79
2023/01/27 09:06:48;;;;;;;13.48;8.10;;;;;;;-0.53;83.08;94327.63;4963879;28;20173;-77
2023/01/27 09:09:14;;;;;;;15.25;7.40;;;;;;;-1.07;82.30;94254.03;4978655;28;20399;-78
2023/01/27 09:11:42;;;;;;;14.25;8.50;;;;;;;-0.75;83.49;94272.72;4978127;28;20547;-77
2023/01/27 09:14:08;;;;;;;18.38;9.07;;;;;;;-0.19;83.58;94358.13;4988047;28;20453;-77
2023/01/27 09:16:34;;;;;;;15.85;8.50;;;;;;;-0.22;83.47;94355.97;4976298;28;20529;-78
2023/01/27 09:18:59;;;;;;;12.93;7.25;;;;;;;-0.49;83.47;94326.19;4973245;28;20069;-78
2023/01/27 09:21:25;;;;;;;13.95;7.70;;;;;;;-0.15;83.96;94358.47;4969224;28;20030;-79
2023/01/27 09:23:50;;;;;;;13.65;7.97;;;;;;;-0.97;83.71;94223.00;4978377;28;20038;-77
2023/01/27 09:26:16;;;;;;;21.13;8.60;;;;;;;-0.59;84.11;94268.66;4984186;28;20038;-78
2023/01/27 09:28:41;;;;;;;17.00;7.93;;;;;;;-0.67;83.42;94229.94;4981361;28;20620;-78
2023/01/27 09:31:09;;;;;;;23.13;7.72;;;;;;;-0.35;83.15;94275.44;4991261;28;20754;-79
2023/01/27 09:33:37;;;;;;;21.83;8.13;;;;;;;-1.21;83.29;94157.16;4977734;28;20128;-77
2023/01/27 09:36:09;;;;;;;17.00;8.18;;;;;;;0.08;83.43;94340.19;4968644;28;20466;-78
2023/01/27 09:38:45;;;;;;;17.35;8.02;;;;;;;0.03;83.05;94324.47;4970444;28;20146;-77
2023/01/27 09:41:29;;;;;;;17.20;7.82;;;;;;;-0.11;84.00;94329.13;4966174;28;20030;-78
2023/01/27 09:44:05;;;;;;;17.55;7.35;;;;;;;-0.20;84.55;94301.03;4958058;28;20038;-77
2023/01/27 09:47:04;;;;;;;13.65;8.02;;;;;;;-0.01;85.01;94323.34;4961724;28;20033;-78
2023/01/27 09:49:33;;;;;;;19.55;8.55;;;;;;;0.03;84.67;94329.69;4959137;28;20026;-78
2023/01/27 09:52:16;;;;;;;21.63;7.45;;;;;;;0.10;84.29;94327.75;4979591;28;20757;-78
2023/01/27 09:54:53;;;;;;;16.83;7.82;;;;;;;-0.07;84.76;94329.44;4985086;28;20041;-78
2023/01/27 09:57:40;;;;;;;14.07;7.25;;;;;;;-0.97;84.44;94186.56;4988643;28;20031;-77
2023/01/27 10:00:19;;;;;;;18.58;7.97;;;;;;;-0.24;85.15;94325.97;4978972;28;20425;-78
2023/01/27 10:02:51;;;;;;;21.85;8.90;;;;;;;-0.16;85.22;94310.00;4987897;28;20064;-78
2023/01/27 10:05:29;;;;;;;15.15;7.40;;;;;;;-0.27;85.03;94308.19;4979645;28;20060;-77
2023/01/27 10:08:40;;;;;;;17.83;7.05;;;;;;;-0.42;85.54;94270.34;4978800;28;20041;-79
2023/01/27 10:11:33;;;;;;;18.80;8.95;;;;;;;-0.39;85.26;94287.34;4987455;28;20487;-80
2023/01/27 10:14:14;;;;;;;18.30;7.35;;;;;;;-0.25;85.06;94298.31;4976636;28;20108;-79
2023/01/27 10:17:01;;;;;;;11.00;6.78;;;;;;;-0.42;84.84;94306.81;4975060;28;20037;-79
2023/01/27 10:19:44;;;;;;;10.80;6.63;;;;;;;-0.74;84.85;94240.47;4983452;28;20196;-78
2023/01/27 10:22:29;;;;;;;14.63;7.57;;;;;;;-0.33;84.96;94293.47;4984285;28;21646;-78
2023/01/27 10:25:12;;;;;;;15.85;7.57;;;;;;;-1.11;84.59;94200.03;4989233;28;20033;-79
2023/01/27 10:27:46;;;;;;;9.90;6.90;;;;;;;-0.88;84.96;94208.66;4983031;28;20051;-80
2023/01/27 10:30:19;;;;;;;15.50;7.82;;;;;;;-0.69;84.75;94250.22;4977901;28;20140;-78
2023/01/27 10:33:18;;;;;;;20.75;9.80;;;;;;;-0.33;84.89;94303.88;4972581;28;20041;-80
2023/01/27 10:36:09;;;;;;;14.20;8.70;;;;;;;-0.45;85.48;94289.03;4963541;28;20034;-79
2023/01/27 10:39:19;;;;;;;15.15;7.95;;;;;;;-0.38;85.09;94296.72;4959813;28;20072;-77
2023/01/27 10:42:01;;;;;;;14.45;8.70;;;;;;;-0.42;84.79;94312.03;4978573;28;20269;-79
2023/01/27 10:44:54;;;;;;;18.65;8.45;;;;;;;-0.41;85.02;94294.59;4977666;28;20058;-78
2023/01/27 10:47:53;;;;;;;14.27;8.45;;;;;;;-0.37;84.37;94300.91;4989679;28;20423;-78
2023/01/27 10:50:29;;;;;;;13.95;8.48;;;;;;;-0.64;84.62;94245.09;4966618;28;20046;-81
2023/01/27 10:53:07;;;;;;;12.77;8.20;;;;;;;-0.74;84.05;94214.41;4982738;28;20093;-79
2023/01/27 10:56:03;;;;;;;14.65;8.82;;;;;;;-0.22;84.81;94301.25;4979866;28;20097;-78
2023/01/27 10:58:29;;;;;;;14.85;8.60;;;;;;;-0.35;84.02;94293.69;4972640;28;20485;-81
2023/01/27 11:00:56;;;;;;;16.40;8.95;;;;;;;-0.25;84.11;94296.50;4968178;28;20501;-80
2023/01/27 11:03:31;;;;;;;13.82;8.60;;;;;;;-1.20;84.28;94170.94;4982463;28;20061;-82
2023/01/27 11:06:03;;;;;;;21.75;9.30;;;;;;;-0.34;84.81;94310.09;4967459;28;20107;-81
2023/01/27 11:08:33;;;;;;;17.58;9.57;;;;;;;-0.53;84.86;94271.13;4965391;28;20034;-79
2023/01/27 11:14:00;;;;;;;;;;;;;;;-0.26;84.92;94288.91;4973737;28;20088;-78
2023/01/27 11:16:31;;;;;;;17.58;9.48;;;;;;;-0.11;84.91;94295.25;4964793;28;19925;-77
2023/01/27 11:19:01;;;;;;;19.17;9.38;;;;;;;-0.63;84.93;94192.81;4956278;28;20102;-79
2023/01/27 11:21:30;;;;;;;18.20;10.40;;;;;;;-0.53;84.69;94187.00;4949518;28;20040;-79
2023/01/27 11:23:58;;;;;;;20.98;9.23;;;;;;;-0.98;83.84;94129.53;4972059;28;20057;-77
2023/01/27 11:26:39;;;;;;;15.70;8.90;;;;;;;-1.07;83.59;94136.94;4954637;28;20522;-77
2023/01/27 11:29:28;;;;;;;14.98;8.55;;;;;;;-0.80;83.97;94178.88;4955439;28;21008;-78
2023/01/27 11:32:16;;;;;;;23.83;11.63;;;;;;;-0.16;84.31;94266.50;4947239;28;20038;-77
2023/01/27 11:35:00;;;;;;;16.98;9.30;;;;;;;-0.58;84.21;94194.72;4949557;28;20038;-76
2023/01/27 11:37:29;;;;;;;13.75;9.43;;;;;;;-0.07;84.37;94264.28;4947692;28;20113;-76
2023/01/27 11:39:55;;;;;;;24.27;12.23;;;;;;;-0.61;84.87;94182.16;4983965;28;20121;-76
2023/01/27 11:42:21;;;;;;;15.38;9.13;;;;;;;-0.22;83.27;94261.38;4974583;28;20037;-76
2023/01/27 11:44:53;;;;;;;17.58;9.70;;;;;;;-0.13;83.25;94267.81;4970304;28;20030;-76
2023/01/27 11:47:40;;;;;;;17.15;10.48;;;;;;;-0.81;83.55;94196.31;4974512;28;20042;-76
2023/01/27 11:50:07;;;;;;;17.83;9.52;;;;;;;-0.42;84.04;94240.91;4981459;28;20034;-76
2023/01/27 11:52:33;;;;;;;20.52;10.27;;;;;;;-0.58;84.20;94210.34;4976487;28;20374;-77
2023/01/27 11:55:10;;;;;;;18.38;9.40;;;;;;;-0.31;84.32;94262.75;4960933;28;20048;-77
2023/01/27 11:57:41;;;;;;;30.02;10.63;;;;;;;-1.32;84.49;94089.53;4952771;28;20545;-76
2023/01/27 12:00:25;;;;;;;;;;;;;;;-0.14;84.70;94259.22;4979414;28;20124;-76
2023/01/27 12:03:02;;;;;;;16.90;9.35;;;;;;;-0.97;84.31;94157.94;4961564;28;19922;-76
2023/01/27 12:05:35;;;;;;;17.60;10.50;;;;;;;-0.70;83.63;94166.09;4963464;28;20030;-76
2023/01/27 12:08:02;;;;;;;20.13;11.10;;;;;;;-0.09;84.50;94251.50;4980946;28;20041;-77
2023/01/27 12:10:35;;;;;;;16.23;10.45;;;;;;;0.00;84.03;94257.16;4961267;28;20531;-77
2023/01/27 12:13:15;;;;;;;17.25;10.82;;;;;;;-0.07;84.20;94264.28;4962343;28;20580;-77
2023/01/27 12:15:50;;;;;;;16.00;9.30;;;;;;;-0.33;83.29;94231.72;4944110;28;20531;-76